Time;durP1;ratioP1;P1;durP2;ratioP2;P2;SDS_P1;SDS_P2;PMS_P1;PMS_P2;Temp;Humidity;BMP_temperature;BMP_pressure;BME280_temperature;BME280_humidity;BME280_pressure;Samples;Min_cycle;Max_cycle;Signal;HPM_P1;HPM_P2
2020/12/30 00:00:06;;;;;;;;;;;8.20;99.90;;;7.69;81.97;100924.53;5052095;28;19955;-63
2020/12/30 00:02:34;;;;;;;;;;;8.20;99.90;;;7.75;82.21;100924.56;5051065;28;19978;-64
2020/12/30 00:05:02;;;;;;;;;;;8.30;99.90;;;7.79;81.84;100936.38;5052231;28;19979;-63
2020/12/30 00:07:32;;;;;;;;;;;8.30;99.90;;;7.81;81.39;100931.56;5051880;28;19925;-63
2020/12/30 00:10:00;;;;;;;;;;;8.30;99.90;;;7.81;81.32;100931.56;5051701;28;19931;-63
2020/12/30 00:12:28;;;;;;;;;;;8.30;99.90;;;7.81;81.73;100935.06;5051082;28;20015;-63
2020/12/30 00:14:56;;;;;;;;;;;8.30;99.90;;;7.80;81.74;100936.13;5051953;28;20427;-63
2020/12/30 00:17:23;;;;;;;;;;;8.30;99.90;;;7.72;81.59;100936.66;5051953;28;20342;-63
2020/12/30 00:19:51;;;;;;;;;;;8.30;99.90;;;7.66;82.00;100935.03;5051737;28;19932;-63
2020/12/30 00:22:18;;;;;;;;;;;8.20;99.90;;;7.64;82.07;100929.09;5052069;28;19929;-63
2020/12/30 00:24:45;;;;;;;;;;;8.20;99.90;;;7.64;82.37;100935.31;5055904;28;19929;-63
2020/12/30 00:27:14;;;;;;;;;;;8.20;99.90;;;7.60;82.19;100939.59;5055950;28;19924;-63
2020/12/30 00:29:41;;;;;;;;;;;8.10;99.90;;;7.58;82.16;100939.06;5055911;28;19925;-63
2020/12/30 00:32:10;;;;;;;;;;;8.10;99.90;;;7.58;82.26;100947.13;5055245;28;19925;-63
2020/12/30 00:34:37;;;;;;;;;;;8.10;99.90;;;7.58;82.90;100941.75;5055788;28;19925;-63
2020/12/30 00:37:05;;;;;;;;;;;8.10;99.90;;;7.62;82.21;100944.72;5055815;28;20373;-63
2020/12/30 00:39:32;;;;;;;;;;;8.10;99.90;;;7.61;82.84;100945.78;5055644;28;19925;-64
2020/12/30 00:41:59;;;;;;;;;;;8.10;99.90;;;7.63;82.26;100947.13;5055024;28;19928;-63
2020/12/30 00:44:27;;;;;;;;;;;8.20;99.90;;;7.67;82.20;100945.53;5055724;28;20284;-64
2020/12/30 00:46:55;;;;;;;;;;;8.20;99.90;;;7.72;81.87;100954.69;5055655;28;19931;-63
2020/12/30 00:49:22;;;;;;;;;;;8.20;99.90;;;7.74;81.24;100960.63;5055602;28;19929;-63
2020/12/30 00:51:51;;;;;;;;;;;8.30;99.90;;;7.71;80.99;100951.19;5054849;28;20437;-63
2020/12/30 00:54:18;;;;;;;;;;;8.30;99.90;;;7.72;80.53;100955.47;5055212;28;19974;-63
2020/12/30 00:56:46;;;;;;;;;;;8.30;99.90;;;7.69;80.42;100956.84;5055465;28;19929;-63
2020/12/30 00:59:13;;;;;;;;;;;8.20;99.90;;;7.67;80.97;100961.69;5055410;28;20342;-64
2020/12/30 01:01:42;;;;;;;;;;;8.20;99.90;;;7.72;80.85;100959.00;5054826;28;19931;-64
2020/12/30 01:04:09;;;;;;;;;;;8.30;99.90;;;7.78;81.08;100959.84;5055246;28;19928;-63
2020/12/30 01:06:36;;;;;;;;;;;8.30;99.90;;;7.77;80.97;100950.13;5055254;28;19925;-63
2020/12/30 01:09:05;;;;;;;;;;;8.30;99.90;;;7.75;81.00;100951.47;5054860;28;19983;-63
2020/12/30 01:11:33;;;;;;;;;;;8.30;99.90;;;7.74;80.58;100963.31;5054768;28;20011;-63
2020/12/30 01:14:00;;;;;;;;;;;8.30;99.90;;;7.74;80.41;100961.44;5054721;28;20429;-63
2020/12/30 01:16:28;;;;;;;;;;;8.30;99.90;;;7.74;80.56;100956.03;5055179;28;19925;-64
2020/12/30 01:18:56;;;;;;;;;;;8.20;99.90;;;7.74;80.80;100955.22;5055058;28;20438;-64
2020/12/30 01:21:23;;;;;;;;;;;8.20;99.90;;;7.70;80.30;100953.06;5054688;28;19925;-64
2020/12/30 01:23:50;;;;;;;;;;;8.20;99.90;;;7.63;80.50;100963.28;5054324;28;19925;-64
2020/12/30 01:26:17;;;;;;;;;;;8.00;99.90;;;7.40;80.79;100971.03;5054743;28;19929;-63
2020/12/30 01:28:45;;;;;;;;;;;8.00;99.90;;;7.23;81.95;100973.16;5054732;28;19929;-63
2020/12/30 01:31:12;;;;;;;;;;;7.80;99.90;;;7.08;82.11;100972.00;5054945;28;19924;-63
2020/12/30 01:33:39;;;;;;;;;;;7.70;99.90;;;6.95;82.57;100987.81;5053137;28;19925;-63
2020/12/30 01:36:07;;;;;;;;;;;7.60;99.90;;;6.94;83.29;100972.75;5054673;28;19924;-64
2020/12/30 01:38:36;;;;;;;;;;;7.50;99.90;;;6.89;83.70;100968.16;5054384;28;20458;-63
2020/12/30 01:41:03;;;;;;;;;;;7.50;99.90;;;6.89;83.87;100978.09;5054673;28;19940;-63
2020/12/30 01:43:31;;;;;;;;;;;7.50;99.90;;;6.83;83.99;100971.91;5053840;28;19932;-63
2020/12/30 01:45:58;;;;;;;;;;;7.40;99.90;;;6.80;84.30;100982.34;5054788;28;19928;-63
2020/12/30 01:48:25;;;;;;;;;;;7.40;99.90;;;6.79;84.51;100980.72;5054021;28;20007;-63
2020/12/30 01:50:52;;;;;;;;;;;7.30;99.90;;;6.81;84.26;100975.91;5054574;28;20450;-63
2020/12/30 01:53:21;;;;;;;;;;;7.40;99.90;;;6.83;84.56;100988.03;5053454;28;19924;-63
2020/12/30 01:55:49;;;;;;;;;;;7.40;99.90;;;6.94;84.33;100983.50;5054265;28;19932;-63
2020/12/30 01:58:16;;;;;;;;;;;7.50;99.90;;;7.07;83.91;100981.16;5054018;28;19951;-63
2020/12/30 02:00:48;;;;;;;;;;;7.60;99.90;;;7.21;83.35;100984.16;5054579;28;19928;-63
2020/12/30 02:03:16;;;;;;;;;;;7.70;99.90;;;7.28;82.38;100984.72;5035460;28;19976;-64
2020/12/30 02:05:43;;;;;;;;;;;7.80;99.90;;;7.31;81.45;100984.19;5054440;28;19929;-64
2020/12/30 02:08:12;;;;;;;;;;;7.80;99.90;;;7.29;81.76;100985.53;4152584;28;10000683;-62
2020/12/30 02:10:41;;;;;;;;;;;7.80;99.90;;;7.22;81.64;100985.78;5025215;28;19941;-63
2020/12/30 02:13:08;;;;;;;;;;;7.80;99.90;;;7.06;82.75;100982.22;5011091;28;19932;-65
2020/12/30 02:15:36;;;;;;;;;;;7.60;99.90;;;6.99;82.71;100983.53;5013717;28;19929;-63
2020/12/30 02:18:03;;;;;;;;;;;7.50;99.90;;;6.94;83.71;100986.19;5013338;28;19925;-63
2020/12/30 02:20:30;;;;;;;;;;;7.50;99.90;;;6.90;83.33;100990.47;5013497;28;19925;-63
2020/12/30 02:23:03;;;;;;;;;;;7.50;99.90;;;6.88;83.50;100990.72;5012336;28;19936;-63
2020/12/30 02:25:31;;;;;;;;;;;7.50;99.90;;;6.88;83.39;100995.28;5013794;28;20020;-63
2020/12/30 02:27:58;;;;;;;;;;;7.40;99.90;;;6.84;83.27;101000.38;5013261;28;19929;-63
2020/12/30 02:30:26;;;;;;;;;;;7.40;99.90;;;6.85;83.65;101010.06;4996232;28;19953;-63
2020/12/30 02:32:53;;;;;;;;;;;7.40;99.90;;;6.86;83.78;101010.88;5012565;28;19930;-63
2020/12/30 02:35:23;;;;;;;;;;;7.40;99.90;;;6.89;83.37;101013.88;5013389;28;19933;-63
2020/12/30 02:37:50;;;;;;;;;;;7.50;99.90;;;6.92;83.43;101017.91;5013435;28;20012;-63
2020/12/30 02:40:18;;;;;;;;;;;7.50;99.90;;;6.92;82.99;101020.59;5013847;28;19976;-63
2020/12/30 02:42:46;;;;;;;;;;;7.50;99.90;;;6.88;83.46;101012.22;5012910;28;20297;-64
2020/12/30 02:45:14;;;;;;;;;;;7.50;99.90;;;6.87;83.50;101020.56;5013656;28;19932;-63
2020/12/30 02:47:41;;;;;;;;;;;7.40;99.90;;;6.87;83.10;101023.25;4996248;28;20361;-63
2020/12/30 02:50:09;;;;;;;;;;;7.40;99.90;;;6.90;83.42;101022.75;4996291;28;20304;-63
2020/12/30 02:52:36;;;;;;;;;;;7.50;99.90;;;6.92;83.18;101017.91;4995643;28;19929;-63
2020/12/30 02:55:03;;;;;;;;;;;7.40;99.90;;;6.90;82.89;101020.84;5013424;28;19979;-63
2020/12/30 02:57:30;;;;;;;;;;;7.50;99.90;;;6.83;83.46;101031.03;5013208;28;20032;-63
2020/12/30 02:59:58;;;;;;;;;;;7.40;99.90;;;6.88;82.98;101027.53;5013500;28;19992;-63
2020/12/30 03:02:26;;;;;;;;;;;7.40;99.90;;;6.93;82.39;101027.59;5012759;28;19929;-63
2020/12/30 03:04:53;;;;;;;;;;;7.50;99.90;;;6.84;82.54;101026.47;5013386;28;20289;-64
2020/12/30 03:07:21;;;;;;;;;;;;;;;6.77;82.45;101040.13;5013152;28;19936;-63
2020/12/30 03:09:48;;;;;;;;;;;7.30;99.90;;;6.71;82.73;101037.66;5013053;28;19986;-63
2020/12/30 03:12:15;;;;;;;;;;;7.20;99.90;;;6.64;83.60;101032.50;5012431;28;19933;-64
2020/12/30 03:14:42;;;;;;;;;;;7.20;99.90;;;6.62;84.72;101039.22;4995645;28;19932;-63
2020/12/30 03:17:11;;;;;;;;;;;7.20;99.90;;;6.69;84.04;101034.44;5012953;28;20442;-63
2020/12/30 03:19:38;;;;;;;;;;;7.20;99.90;;;6.79;83.80;101042.53;5013062;28;20267;-63
2020/12/30 03:22:05;;;;;;;;;;;7.30;99.90;;;6.76;83.20;101040.38;5012286;28;19972;-63
2020/12/30 03:24:32;;;;;;;;;;;7.30;99.90;;;6.73;83.50;101033.66;4995559;28;19933;-64
2020/12/30 03:27:00;;;;;;;;;;;7.30;99.90;;;6.85;83.66;101028.88;4995378;28;19948;-63
2020/12/30 03:29:27;;;;;;;;;;;7.40;99.90;;;6.87;82.91;101029.41;5013135;28;19929;-63
2020/12/30 03:31:54;;;;;;;;;;;7.40;99.90;;;6.80;83.05;101028.03;5012496;28;19926;-63
2020/12/30 03:34:22;;;;;;;;;;;7.30;99.90;;;6.63;83.73;101025.50;5012635;28;19925;-63
2020/12/30 03:36:49;;;;;;;;;;;7.20;99.90;;;6.46;83.23;101033.72;4995329;28;19925;-63
2020/12/30 03:39:17;;;;;;;;;;;7.10;99.90;;;6.39;84.54;101038.50;4995034;28;20305;-64
2020/12/30 03:41:44;;;;;;;;;;;7.00;99.90;;;6.24;84.00;101035.69;5012183;28;20365;-63
2020/12/30 03:44:11;;;;;;;;;;;6.80;99.90;;;6.12;83.90;101044.97;5012411;28;20285;-63
2020/12/30 03:46:38;;;;;;;;;;;6.70;99.90;;;6.05;83.89;101039.81;5012708;28;19929;-64
2020/12/30 03:49:06;;;;;;;;;;;6.60;99.90;;;5.97;85.24;101033.03;4995143;28;19948;-63
2020/12/30 03:51:34;;;;;;;;;;;6.50;99.90;;;6.07;86.61;101036.88;5012309;28;19979;-63
2020/12/30 03:54:01;;;;;;;;;;;6.60;99.90;;;6.11;85.81;101032.63;5012218;28;20293;-63
2020/12/30 03:56:29;;;;;;;;;;;6.70;99.90;;;6.11;86.30;101041.47;4994881;28;19925;-63
2020/12/30 03:58:56;;;;;;;;;;;6.70;99.90;;;6.11;86.47;101035.31;4994747;28;19929;-63
2020/12/30 04:01:23;;;;;;;;;;;6.70;99.90;;;6.09;86.53;101032.06;5012266;28;20431;-63
2020/12/30 04:03:50;;;;;;;;;;;6.70;99.90;;;6.12;86.05;101036.91;5011878;28;19961;-63
2020/12/30 04:06:17;;;;;;;;;;;6.70;99.90;;;6.13;85.52;101035.84;5012369;28;19930;-63
2020/12/30 04:08:46;;;;;;;;;;;6.70;99.90;;;6.10;85.83;101034.50;4994778;28;19926;-63
2020/12/30 04:11:13;;;;;;;;;;;6.70;99.90;;;6.16;85.06;101038.84;4994765;28;19933;-63
2020/12/30 04:13:40;;;;;;;;;;;6.70;99.90;;;6.21;85.39;101033.50;4994121;28;19925;-63
2020/12/30 04:16:07;;;;;;;;;;;6.80;99.90;;;6.26;85.69;101041.59;5012109;28;19929;-63
2020/12/30 04:18:35;;;;;;;;;;;6.80;99.90;;;6.30;85.02;101028.47;4994615;28;19936;-63
2020/12/30 04:21:02;;;;;;;;;;;6.90;99.90;;;6.31;85.32;101022.06;5012337;28;19925;-63
2020/12/30 04:23:29;;;;;;;;;;;6.90;99.90;;;6.34;85.76;101022.34;5011379;28;19925;-63
2020/12/30 04:25:57;;;;;;;;;;;6.90;99.90;;;6.35;85.11;101023.16;5012238;28;19929;-63
2020/12/30 04:28:24;;;;;;;;;;;6.90;99.90;;;6.41;85.46;101024.81;5011685;28;19929;-63
2020/12/30 04:30:52;;;;;;;;;;;7.00;99.90;;;6.46;84.99;101025.66;4995017;28;19979;-63
2020/12/30 04:33:19;;;;;;;;;;;7.00;99.90;;;6.50;83.77;101021.41;4993863;28;19928;-64
2020/12/30 04:35:46;;;;;;;;;;;7.10;99.90;;;6.49;84.40;101009.03;4994525;28;19925;-63
2020/12/30 04:38:14;;;;;;;;;;;7.00;99.90;;;6.53;84.49;101018.22;4994384;28;20277;-64
2020/12/30 04:40:41;;;;;;;;;;;7.10;99.90;;;6.54;84.61;101016.31;5012275;28;20297;-63
2020/12/30 04:43:11;;;;;;;;;;;7.10;99.90;;;6.49;84.47;101014.41;4993980;28;19926;-63
2020/12/30 04:45:39;;;;;;;;;;;7.10;99.90;;;6.49;84.42;101027.84;5011965;28;20351;-63
2020/12/30 04:48:07;;;;;;;;;;;7.10;99.90;;;6.48;83.99;101026.22;5011807;28;19929;-63
2020/12/30 04:50:34;;;;;;;;;;;7.00;99.90;;;6.50;83.92;101025.97;5012212;28;19925;-64
2020/12/30 04:53:02;;;;;;;;;;;7.00;99.90;;;6.51;84.55;101031.06;5011282;28;19925;-63
2020/12/30 04:55:34;;;;;;;;;;;7.10;99.90;;;6.59;84.63;101032.47;5011969;28;20301;-63
2020/12/30 04:58:07;;;;;;;;;;;7.10;99.90;;;6.65;83.97;101036.00;5011559;28;19968;-64
2020/12/30 05:00:37;;;;;;;;;;;7.20;99.90;;;6.60;83.57;101036.78;4994296;28;19933;-64
2020/12/30 05:03:09;;;;;;;;;;;7.20;99.90;;;6.54;84.64;101045.84;5011278;28;20000;-63
2020/12/30 05:05:37;;;;;;;;;;;7.10;99.90;;;6.52;83.90;101039.94;5011992;28;20312;-63
2020/12/30 05:08:07;;;;;;;;;;;7.10;99.90;;;6.52;84.20;101048.00;5011479;28;20337;-63
2020/12/30 05:10:37;;;;;;;;;;;7.10;99.90;;;6.51;83.55;101043.69;5014697;28;20387;-65
2020/12/30 05:13:04;;;;;;;;;;;7.10;99.90;;;6.47;83.65;101039.91;4997508;28;19937;-63
2020/12/30 05:15:32;;;;;;;;;;;7.00;99.90;;;6.42;84.31;101050.59;5015343;28;19925;-63
2020/12/30 05:18:03;;;;;;;;;;;7.00;99.90;;;6.37;84.11;101047.88;4997812;28;19926;-65
2020/12/30 05:20:35;;;;;;;;;;;6.90;99.90;;;6.33;84.29;101052.13;5015534;28;19979;-63
2020/12/30 05:23:04;;;;;;;;;;;6.90;99.90;;;6.26;83.58;101055.03;5014402;28;19952;-63
2020/12/30 05:25:34;;;;;;;;;;;6.80;99.90;;;6.17;83.84;101061.94;5015428;28;20414;-63
2020/12/30 05:28:03;;;;;;;;;;;6.80;99.90;;;6.10;84.77;101061.34;5014638;28;19932;-63
2020/12/30 05:30:30;;;;;;;;;;;6.70;99.90;;;6.07;84.74;101061.03;5015027;28;19926;-64
2020/12/30 05:32:59;;;;;;;;;;;6.60;99.90;;;6.06;85.07;101057.53;5014375;28;19929;-64
2020/12/30 05:35:27;;;;;;;;;;;6.60;99.90;;;6.05;85.17;101062.09;5015196;28;19933;-63
2020/12/30 05:37:55;;;;;;;;;;;6.60;99.90;;;5.99;84.80;101067.66;5014604;28;19948;-63
2020/12/30 05:40:23;;;;;;;;;;;6.50;99.90;;;5.93;84.64;101065.97;5014955;28;19932;-63
2020/12/30 05:42:52;;;;;;;;;;;6.50;99.90;;;5.84;84.96;101065.59;4996940;28;19926;-63
2020/12/30 05:45:20;;;;;;;;;;;6.70;99.90;;;5.79;84.60;101062.06;5014988;28;20373;-63
2020/12/30 05:47:47;;;;;;;;;;;6.30;99.90;;;5.78;84.66;101071.97;5014381;28;19925;-63
2020/12/30 05:50:23;;;;;;;;;;;6.30;99.90;;;5.60;84.85;101069.63;5014794;28;19925;-63
2020/12/30 05:52:50;;;;;;;;;;;6.20;99.90;;;5.68;86.57;101069.19;5014020;28;19925;-63
2020/12/30 05:55:25;;;;;;;;;;;6.20;99.90;;;5.87;87.27;101072.38;5014890;28;19929;-63
2020/12/30 05:57:53;;;;;;;;;;;6.40;99.90;;;6.11;86.41;101072.91;4996882;28;20012;-63
2020/12/30 06:00:21;;;;;;;;;;;6.60;99.90;;;6.22;84.98;101072.72;4997024;28;19933;-63
2020/12/30 06:02:48;;;;;;;;;;;6.70;99.90;;;6.23;84.95;101068.97;5013755;28;19995;-63
2020/12/30 06:05:16;;;;;;;;;;;6.80;99.90;;;6.21;84.33;101076.47;5014768;28;19929;-64
2020/12/30 06:07:47;;;;;;;;;;;6.80;99.90;;;6.20;84.92;101080.22;5014183;28;19925;-63
2020/12/30 06:10:15;;;;;;;;;;;6.80;99.90;;;6.24;84.55;101078.66;5014382;28;19925;-63
2020/12/30 06:12:50;;;;;;;;;;;6.80;99.90;;;6.28;84.37;101081.66;4995955;28;19925;-63
2020/12/30 06:15:19;;;;;;;;;;;6.80;99.90;;;6.33;84.44;101095.09;5014214;28;19936;-63
2020/12/30 06:17:57;;;;;;;;;;;6.90;99.90;;;6.36;85.05;101092.72;5013926;28;19933;-63
2020/12/30 06:20:30;;;;;;;;;;;6.90;99.90;;;6.34;84.27;101092.19;5013948;28;19980;-63
2020/12/30 06:23:00;;;;;;;;;;;6.90;99.90;;;6.36;84.91;101102.66;4996629;28;19930;-63
2020/12/30 06:25:29;;;;;;;;;;;6.90;99.90;;;6.38;84.14;101105.91;4980809;28;19925;-63
2020/12/30 06:27:56;;;;;;;;;;;6.90;99.90;;;6.38;84.26;101108.59;5013563;28;19972;-63
2020/12/30 06:30:24;;;;;;;;;;;6.90;99.90;;;6.40;83.71;101109.16;5014046;28;19988;-63
2020/12/30 06:32:52;;;;;;;;;;;7.00;99.90;;;6.40;83.39;101111.84;4995570;28;19926;-63
2020/12/30 06:35:26;;;;;;;;;;;7.00;99.90;;;6.30;83.66;101117.91;5014012;28;20376;-63
2020/12/30 06:37:53;;;;;;;;;;;6.90;99.90;;;6.28;83.79;101120.06;5013466;28;19925;-63
2020/12/30 06:40:24;;;;;;;;;;;6.90;99.90;;;6.29;84.38;101120.88;5013753;28;20463;-63
2020/12/30 06:42:55;;;;;;;;;;;6.90;99.90;;;6.30;84.05;101131.34;4995670;28;20205;-63
2020/12/30 06:45:51;;;;;;;;;;;6.90;99.90;;;6.20;83.96;101133.91;5013740;28;19932;-63
2020/12/30 06:48:22;;;;;;;;;;;6.80;99.90;;;6.05;84.55;101137.25;5013079;28;20016;-63
2020/12/30 06:50:49;;;;;;;;;;;6.60;99.90;;;6.07;84.76;101145.06;5013729;28;19933;-63
2020/12/30 06:53:31;;;;;;;;;;;6.60;99.90;;;6.13;85.07;101145.94;5012794;28;19925;-63
2020/12/30 06:56:00;;;;;;;;;;;6.70;99.90;;;6.19;85.61;101143.06;4996635;28;19929;-64
2020/12/30 06:58:48;;;;;;;;;;;6.80;99.90;;;6.27;85.36;101142.59;5012832;28;19937;-63
2020/12/30 07:01:17;;;;;;;;;;;6.80;99.90;;;6.30;85.35;101146.66;5013427;28;20023;-63
2020/12/30 07:03:44;;;;;;;;;;;6.80;99.90;;;6.27;84.08;101155.22;5012855;28;20398;-63
2020/12/30 07:06:29;;;;;;;;;;;6.80;99.90;;;6.14;83.71;101150.25;4996183;28;19925;-63
2020/12/30 07:08:57;;;;;;;;;;;6.70;99.90;;;5.98;84.01;101158.13;4996259;28;19926;-63
2020/12/30 07:11:42;;;;;;;;;;;6.60;99.90;;;5.81;84.56;101156.53;4995651;28;20016;-63
2020/12/30 07:14:11;;;;;;;;;;;6.40;99.90;;;5.79;85.92;101159.47;5013198;28;20289;-63
2020/12/30 07:16:38;;;;;;;;;;;6.40;99.90;;;5.86;85.73;101162.00;5013108;28;19929;-63
2020/12/30 07:19:13;;;;;;;;;;;6.50;99.90;;;5.92;85.66;101159.13;5012811;28;19929;-63
2020/12/30 07:21:54;;;;;;;;;;;6.50;99.90;;;5.94;85.31;101166.94;5012420;28;19949;-63
2020/12/30 07:24:25;;;;;;;;;;;6.50;99.90;;;5.93;85.40;101171.47;5013002;28;20308;-63
2020/12/30 07:26:56;;;;;;;;;;;6.50;99.90;;;5.95;85.24;101168.56;5012958;28;20449;-63
2020/12/30 07:29:24;;;;;;;;;;;6.50;99.90;;;5.96;85.02;101176.34;5012697;28;19925;-63
2020/12/30 07:31:53;;;;;;;;;;;6.60;99.90;;;5.99;85.19;101175.03;4994282;28;19988;-64
2020/12/30 07:34:23;;;;;;;;;;;6.50;99.90;;;6.01;84.76;101180.97;5012684;28;20278;-63
2020/12/30 07:36:51;;;;;;;;;;;6.60;99.90;;;6.03;85.06;101185.03;4995342;28;19929;-63
2020/12/30 07:39:28;;;;;;;;;;;6.60;99.90;;;6.07;84.59;101189.91;5012580;28;19936;-63
2020/12/30 07:41:57;;;;;;;;;;;6.60;99.90;;;6.17;84.78;101187.34;5012201;28;19925;-63
2020/12/30 07:44:25;;;;;;;;;;;6.70;99.90;;;6.21;84.54;101193.81;5012597;28;19933;-63
2020/12/30 07:46:52;;;;;;;;;;;6.80;99.90;;;6.33;84.54;101186.41;4995116;28;19972;-63
2020/12/30 07:49:23;;;;;;;;;;;6.90;99.90;;;6.24;83.74;101185.25;5012247;28;20301;-63
2020/12/30 07:51:54;;;;;;;;;;;6.80;99.90;;;6.11;83.09;101191.81;4994584;28;19954;-64
2020/12/30 07:54:22;;;;;;;;;;;6.70;99.90;;;6.00;83.28;101198.97;5012371;28;20313;-63
2020/12/30 07:56:50;;;;;;;;;;;6.60;99.90;;;5.87;83.68;101198.50;5012584;28;20025;-63
2020/12/30 07:59:22;;;;;;;;;;;6.50;99.90;;;5.76;84.38;101199.41;5012120;28;19929;-63
2020/12/30 08:01:57;;;;;;;;;;;6.40;99.90;;;5.63;84.67;101199.75;4994596;28;19931;-63
2020/12/30 08:04:24;;;;;;;;;;;6.30;99.90;;;5.54;85.19;101191.34;5012420;28;19929;-63
2020/12/30 08:06:52;;;;;;;;;;;6.10;99.90;;;5.54;84.88;101194.00;5012400;28;19932;-64
2020/12/30 08:09:19;;;;;;;;;;;6.10;99.90;;;5.59;84.90;101201.34;5012061;28;20380;-64
2020/12/30 08:11:51;;;;;;;;;;;6.10;99.90;;;5.65;84.93;101198.47;4994352;28;19932;-63
2020/12/30 08:14:21;;;;;;;;;;;6.20;99.90;;;5.72;84.45;101209.00;4978913;28;19925;-63
2020/12/30 08:16:57;;;;;;;;;;;6.30;99.90;;;5.82;84.52;101203.78;4994669;28;19933;-63
2020/12/30 08:19:42;;;;;;;;;;;6.30;99.90;;;5.96;84.05;101205.88;5012063;28;19926;-63
2020/12/30 08:22:14;;;;;;;;;;;6.40;99.90;;;6.10;83.57;101210.88;4993889;28;19925;-63
2020/12/30 08:24:43;;;;;;;;;;;6.60;99.90;;;6.28;83.02;101213.25;4994934;28;20347;-63
2020/12/30 08:27:11;;;;;;;;;;;6.80;99.90;;;6.48;82.25;101216.94;4994842;28;19926;-63
2020/12/30 08:29:40;;;;;;;;;;;6.90;99.90;;;6.70;81.81;101221.47;5012121;28;20503;-63
2020/12/30 08:32:14;;;;;;;;;;;7.10;99.90;;;6.91;81.06;101220.59;5011309;28;19926;-63
2020/12/30 08:34:45;;;;;;;;;;;7.30;99.90;;;7.17;80.53;101222.44;5012178;28;19932;-63
2020/12/30 08:37:15;;;;;;;;;;;7.60;99.90;;;7.41;79.37;101221.00;5011978;28;19932;-63
2020/12/30 08:39:46;;;;;;;;;;;7.80;99.90;;;7.62;78.63;101225.44;5011844;28;20401;-63
2020/12/30 08:42:50;;;;;;;;;;;8.00;99.90;;;7.82;77.63;101232.00;4994255;28;19929;-63
2020/12/30 08:45:21;;;;;;;;;;;8.20;99.90;;;7.95;76.65;101231.53;5016023;28;19945;-63
2020/12/30 08:47:53;;;;;;;;;;;8.40;99.90;;;8.01;76.74;101238.56;5015772;28;20020;-63
2020/12/30 08:50:21;;;;;;;;;;;8.50;99.90;;;8.13;76.80;101241.84;5015909;28;19933;-63
2020/12/30 08:52:48;;;;;;;;;;;8.70;99.90;;;8.31;76.62;101238.72;5015133;28;20336;-63
2020/12/30 08:55:15;;;;;;;;;;;8.80;99.90;;;8.58;76.53;101236.63;5015914;28;20262;-63
2020/12/30 08:57:46;;;;;;;;;;;9.00;99.90;;;8.89;74.01;101240.19;5015688;28;19926;-63
2020/12/30 09:00:19;;;;;;;;;;;9.30;99.90;;;9.19;71.90;101248.31;5015647;28;19932;-63
2020/12/30 09:02:48;;;;;;;;;;;9.50;99.90;;;9.41;70.61;101245.31;4997425;28;19925;-63
2020/12/30 09:05:24;;;;;;;;;;;9.70;99.90;;;9.58;70.12;101247.72;5015982;28;20376;-64
2020/12/30 09:07:51;;;;;;;;;;;9.80;99.90;;;9.71;70.22;101252.56;4997997;28;20296;-63
2020/12/30 09:10:19;;;;;;;;;;;9.90;99.90;;;9.81;69.97;101253.38;5015318;28;19925;-64
2020/12/30 09:12:47;;;;;;;;;;;10.00;99.90;;;9.91;69.65;101257.91;5014877;28;19929;-63
2020/12/30 09:15:15;;;;;;;;;;;10.10;99.90;;;10.03;69.43;101258.41;5015712;28;19930;-63
2020/12/30 09:17:44;;;;;;;;;;;10.20;99.90;;;10.13;69.70;101254.88;4998154;28;20282;-64
2020/12/30 09:20:14;;;;;;;;;;;10.40;99.90;;;10.24;69.07;101262.69;4997908;28;20385;-64
2020/12/30 09:22:42;;;;;;;;;;;10.40;99.90;;;10.30;69.46;101260.78;4980882;28;19925;-64
2020/12/30 09:25:24;;;;;;;;;;;10.50;99.90;;;10.36;68.00;101259.69;5015618;28;20296;-64
2020/12/30 09:27:52;;;;;;;;;;;10.60;99.90;;;10.43;68.48;101266.41;5015350;28;19925;-63
2020/12/30 09:30:22;;;;;;;;;;;10.60;99.90;;;10.50;68.40;101273.41;5014930;28;19926;-63
2020/12/30 09:32:52;;;;;;;;;;;10.70;99.90;;;10.57;67.38;101271.22;5013879;28;20216;-64
2020/12/30 09:35:25;;;;;;;;;;;10.80;99.90;;;10.67;67.08;101273.88;4997719;28;19984;-64
2020/12/30 09:37:53;;;;;;;;;;;10.90;99.90;;;10.73;67.04;101273.53;5015101;28;19979;-63
2020/12/30 09:40:21;;;;;;;;;;;10.90;99.90;;;10.81;66.96;101275.66;5014927;28;19932;-63
2020/12/30 09:42:48;;;;;;;;;;;11.00;99.90;;;10.89;66.86;101275.06;5014301;28;19933;-64
2020/12/30 09:45:19;;;;;;;;;;;11.10;99.90;;;10.96;66.73;101278.28;5015202;28;19925;-63
2020/12/30 09:47:46;;;;;;;;;;;11.10;99.90;;;11.01;65.23;101277.41;5014936;28;19926;-63
2020/12/30 09:50:15;;;;;;;;;;;11.20;99.90;;;11.09;65.21;101286.84;5014592;28;20299;-63
2020/12/30 09:52:43;;;;;;;;;;;11.30;99.90;;;11.18;64.65;101287.88;5013987;28;20348;-64
2020/12/30 09:55:12;;;;;;;;;;;11.40;99.90;;;11.29;65.85;101289.41;5014381;28;19926;-64
2020/12/30 09:57:39;;;;;;;;;;;11.50;99.90;;;11.35;64.47;101290.97;5014673;28;19929;-63
2020/12/30 10:00:08;;;;;;;;;;;11.50;99.90;;;11.35;63.10;101293.69;4997041;28;19973;-63
2020/12/30 10:02:35;;;;;;;;;;;11.60;99.90;;;11.40;63.39;101282.78;5013481;28;19933;-63
2020/12/30 10:05:02;;;;;;;;;;;11.60;99.90;;;11.45;64.53;101280.88;5014668;28;19980;-63
2020/12/30 10:07:31;;;;;;;;;;;;;;;11.52;65.10;101283.22;5014548;28;19933;-63
2020/12/30 10:09:58;;;;;;;;;;;11.70;99.90;;;11.59;64.00;101288.31;4997090;28;19929;-65
2020/12/30 10:12:25;;;;;;;;;;;11.90;99.90;;;11.67;64.92;101285.03;4995952;28;19929;-64
2020/12/30 10:14:52;;;;;;;;;;;11.90;99.90;;;11.69;64.73;101289.06;5014648;28;19926;-65
2020/12/30 10:17:19;;;;;;;;;;;12.00;99.90;;;11.73;62.44;101286.63;5014259;28;19973;-65
2020/12/30 10:19:47;;;;;;;;;;;12.00;99.90;;;11.74;61.72;101289.03;5014297;28;19925;-65
2020/12/30 10:22:14;;;;;;;;;;;12.00;99.90;;;11.78;62.94;101290.06;5013114;28;19925;-65
2020/12/30 10:24:44;;;;;;;;;;;12.00;99.90;;;11.79;61.73;101291.69;4996807;28;20385;-63
2020/12/30 10:27:12;;;;;;;;;;;12.10;99.90;;;11.85;61.82;101295.16;4997176;28;20296;-63
2020/12/30 10:29:39;;;;;;;;;;;12.10;99.90;;;11.88;61.57;101287.28;5014006;28;19933;-63
2020/12/30 10:32:06;;;;;;;;;;;12.20;99.90;;;11.93;62.26;101292.63;5013196;28;19925;-64
2020/12/30 10:34:35;;;;;;;;;;;12.20;99.90;;;12.01;62.00;101292.00;5013954;28;19979;-64
2020/12/30 10:37:02;;;;;;;;;;;12.30;99.90;;;12.09;62.55;101303.31;4996429;28;19926;-63
2020/12/30 10:39:29;;;;;;;;;;;12.40;99.90;;;12.19;61.76;101305.91;4996513;28;19980;-64
2020/12/30 10:41:59;;;;;;;;;;;12.50;99.90;;;12.18;61.18;101310.53;4995750;28;19925;-64
2020/12/30 10:44:26;;;;;;;;;;;12.50;99.90;;;12.16;60.44;101306.50;5013772;28;20282;-64
2020/12/30 10:46:53;;;;;;;;;;;12.50;99.90;;;12.19;61.59;101305.91;5013940;28;19979;-63
2020/12/30 10:49:21;;;;;;;;;;;12.50;99.90;;;12.29;61.49;101305.78;5013608;28;19925;-63
2020/12/30 10:51:48;;;;;;;;;;;12.60;99.90;;;12.27;62.64;101316.13;5012934;28;19926;-64
2020/12/30 10:54:16;;;;;;;;;;;12.60;99.90;;;12.28;60.29;101310.38;5013520;28;19969;-63
2020/12/30 10:56:46;;;;;;;;;;;12.60;99.90;;;12.30;60.82;101307.41;5013542;28;20365;-64
2020/12/30 10:59:15;;;;;;;;;;;12.60;99.90;;;12.21;60.12;101311.84;5013585;28;19961;-64
2020/12/30 11:01:42;;;;;;;;;;;12.60;99.90;;;12.21;61.09;101309.13;4995603;28;19926;-63
2020/12/30 11:04:10;;;;;;;;;;;12.50;99.90;;;12.22;61.97;101318.91;5013410;28;19925;-64
2020/12/30 11:06:39;;;;;;;;;;;12.50;99.90;;;12.20;58.73;101302.91;4978758;28;19948;-64
2020/12/30 11:09:07;;;;;;;;;;;12.50;99.90;;;12.27;61.23;101302.56;4979919;28;19926;-63
2020/12/30 11:11:34;;;;;;;;;;;12.60;99.90;;;12.31;60.60;101295.47;5013114;28;19932;-64
2020/12/30 11:14:02;;;;;;;;;;;12.60;99.90;;;12.28;59.91;101290.63;5012923;28;20296;-63
2020/12/30 11:16:30;;;;;;;;;;;12.60;99.90;;;12.30;59.45;101293.84;5013257;28;19925;-63
2020/12/30 11:18:57;;;;;;;;;;;12.60;99.90;;;12.36;60.86;101288.06;5013001;28;19968;-64
2020/12/30 11:21:25;;;;;;;;;;;12.70;99.90;;;12.56;62.12;101292.41;5012788;28;19925;-64
2020/12/30 11:23:52;;;;;;;;;;;12.90;99.90;;;12.58;58.76;101282.88;5012422;28;19932;-63
2020/12/30 11:26:19;;;;;;;;;;;13.00;99.90;;;12.59;59.81;101289.94;5013184;28;19932;-63
2020/12/30 11:28:46;;;;;;;;;;;12.90;99.90;;;12.64;59.56;101291.78;5012802;28;19925;-63